sensor_id;sensor_type;location;lat;lon;timestamp;temperature;humidity
20862;DHT22;10591;52.532;13.348;2024-02-15T00:02:21;9.30;87.41
20862;DHT22;10591;52.532;13.348;2024-02-15T00:04:52;9.26;87.72
20862;DHT22;10591;52.532;13.348;2024-02-15T00:07:23;9.20;87.84
20862;DHT22;10591;52.532;13.348;2024-02-15T00:09:53;9.19;87.70
20862;DHT22;10591;52.532;13.348;2024-02-15T00:12:24;9.22;87.57
20862;DHT22;10591;52.532;13.348;2024-02-15T00:14:54;9.42;87.28
20862;DHT22;10591;52.532;13.348;2024-02-15T00:17:28;9.44;87.03
20862;DHT22;10591;52.532;13.348;2024-02-15T00:20:04;9.27;87.31
20862;DHT22;10591;52.532;13.348;2024-02-15T00:22:37;9.28;87.52
20862;DHT22;10591;52.532;13.348;2024-02-15T00:25:08;9.24;87.49
20862;DHT22;10591;52.532;13.348;2024-02-15T00:27:43;9.18;87.83
20862;DHT22;10591;52.532;13.348;2024-02-15T00:30:15;9.33;87.33
20862;DHT22;10591;52.532;13.348;2024-02-15T00:32:47;9.29;87.29
20862;DHT22;10591;52.532;13.348;2024-02-15T00:35:19;9.46;86.97
20862;DHT22;10591;52.532;13.348;2024-02-15T00:37:51;9.48;87.18
20862;DHT22;10591;52.532;13.348;2024-02-15T00:40:22;9.48;87.09
20862;DHT22;10591;52.532;13.348;2024-02-15T00:42:55;9.37;87.11
20862;DHT22;10591;52.532;13.348;2024-02-15T00:45:25;9.28;87.55
20862;DHT22;10591;52.532;13.348;2024-02-15T00:47:56;9.27;87.54
20862;DHT22;10591;52.532;13.348;2024-02-15T00:50:28;9.25;87.53
20862;DHT22;10591;52.532;13.348;2024-02-15T00:53:00;9.24;87.53
20862;DHT22;10591;52.532;13.348;2024-02-15T00:55:31;9.37;87.40
20862;DHT22;10591;52.532;13.348;2024-02-15T00:58:02;9.33;87.24
20862;DHT22;10591;52.532;13.348;2024-02-15T01:00:33;9.36;87.40
20862;DHT22;10591;52.532;13.348;2024-02-15T01:03:04;9.34;87.33
20862;DHT22;10591;52.532;13.348;2024-02-15T01:05:34;9.52;86.83
20862;DHT22;10591;52.532;13.348;2024-02-15T01:08:05;9.40;87.11
20862;DHT22;10591;52.532;13.348;2024-02-15T01:10:36;9.37;87.31
20862;DHT22;10591;52.532;13.348;2024-02-15T01:13:06;9.36;87.56
20862;DHT22;10591;52.532;13.348;2024-02-15T01:15:38;9.42;87.53
20862;DHT22;10591;52.532;13.348;2024-02-15T01:18:10;9.45;87.36
20862;DHT22;10591;52.532;13.348;2024-02-15T01:20:42;9.48;87.45
20862;DHT22;10591;52.532;13.348;2024-02-15T01:23:14;9.40;87.48
20862;DHT22;10591;52.532;13.348;2024-02-15T01:25:45;9.51;87.49
20862;DHT22;10591;52.532;13.348;2024-02-15T01:28:16;9.35;87.65
20862;DHT22;10591;52.532;13.348;2024-02-15T01:30:47;9.54;87.38
20862;DHT22;10591;52.532;13.348;2024-02-15T01:33:18;9.50;87.60
20862;DHT22;10591;52.532;13.348;2024-02-15T01:35:49;9.46;87.40
20862;DHT22;10591;52.532;13.348;2024-02-15T01:38:20;9.46;87.58
20862;DHT22;10591;52.532;13.348;2024-02-15T01:40:50;9.31;88.09
20862;DHT22;10591;52.532;13.348;2024-02-15T01:43:21;9.39;87.97
20862;DHT22;10591;52.532;13.348;2024-02-15T01:45:52;9.32;88.18
20862;DHT22;10591;52.532;13.348;2024-02-15T01:48:24;9.35;88.01
20862;DHT22;10591;52.532;13.348;2024-02-15T01:50:57;9.36;88.10
20862;DHT22;10591;52.532;13.348;2024-02-15T01:53:31;9.38;88.24
20862;DHT22;10591;52.532;13.348;2024-02-15T01:56:05;9.34;88.28
20862;DHT22;10591;52.532;13.348;2024-02-15T01:58:36;9.31;88.27
20862;DHT22;10591;52.532;13.348;2024-02-15T02:01:07;9.30;88.36
20862;DHT22;10591;52.532;13.348;2024-02-15T02:03:39;9.26;88.50
20862;DHT22;10591;52.532;13.348;2024-02-15T02:06:10;9.30;88.40
20862;DHT22;10591;52.532;13.348;2024-02-15T02:08:43;9.40;88.33
20862;DHT22;10591;52.532;13.348;2024-02-15T02:11:14;9.39;88.18
20862;DHT22;10591;52.532;13.348;2024-02-15T02:13:45;9.35;88.28
20862;DHT22;10591;52.532;13.348;2024-02-15T02:16:29;9.36;88.22
20862;DHT22;10591;52.532;13.348;2024-02-15T02:19:02;9.46;88.13
20862;DHT22;10591;52.532;13.348;2024-02-15T02:21:35;9.62;88.08
20862;DHT22;10591;52.532;13.348;2024-02-15T02:24:20;9.44;87.92
20862;DHT22;10591;52.532;13.348;2024-02-15T02:26:45;9.52;87.91
20862;DHT22;10591;52.532;13.348;2024-02-15T02:29:16;9.40;88.16
20862;DHT22;10591;52.532;13.348;2024-02-15T02:31:48;9.48;87.82
20862;DHT22;10591;52.532;13.348;2024-02-15T02:34:19;9.38;87.88
20862;DHT22;10591;52.532;13.348;2024-02-15T02:36:50;9.40;88.11
20862;DHT22;10591;52.532;13.348;2024-02-15T02:39:21;9.46;87.72
20862;DHT22;10591;52.532;13.348;2024-02-15T02:41:52;9.37;87.99
20862;DHT22;10591;52.532;13.348;2024-02-15T02:44:24;9.37;87.88
20862;DHT22;10591;52.532;13.348;2024-02-15T02:46:55;9.51;87.96
20862;DHT22;10591;52.532;13.348;2024-02-15T02:49:26;9.55;87.75
20862;DHT22;10591;52.532;13.348;2024-02-15T02:51:57;9.49;87.73
20862;DHT22;10591;52.532;13.348;2024-02-15T02:54:29;9.54;87.72
20862;DHT22;10591;52.532;13.348;2024-02-15T02:57:00;9.50;87.78
20862;DHT22;10591;52.532;13.348;2024-02-15T02:59:31;9.61;87.74
20862;DHT22;10591;52.532;13.348;2024-02-15T03:02:02;9.61;87.40
20862;DHT22;10591;52.532;13.348;2024-02-15T03:04:33;9.56;87.61
20862;DHT22;10591;52.532;13.348;2024-02-15T03:07:04;9.61;87.62
20862;DHT22;10591;52.532;13.348;2024-02-15T03:09:35;9.53;87.65
20862;DHT22;10591;52.532;13.348;2024-02-15T03:12:07;9.60;87.57
20862;DHT22;10591;52.532;13.348;2024-02-15T03:14:39;9.59;87.71
20862;DHT22;10591;52.532;13.348;2024-02-15T03:17:10;9.58;87.57
20862;DHT22;10591;52.532;13.348;2024-02-15T03:19:43;9.65;87.50
20862;DHT22;10591;52.532;13.348;2024-02-15T03:22:13;9.66;87.27
20862;DHT22;10591;52.532;13.348;2024-02-15T03:24:44;9.66;87.32
20862;DHT22;10591;52.532;13.348;2024-02-15T03:27:15;9.78;87.35
20862;DHT22;10591;52.532;13.348;2024-02-15T03:29:45;9.64;87.36
20862;DHT22;10591;52.532;13.348;2024-02-15T03:32:16;9.66;87.41
20862;DHT22;10591;52.532;13.348;2024-02-15T03:34:47;9.65;87.63
20862;DHT22;10591;52.532;13.348;2024-02-15T03:37:18;9.68;87.41
20862;DHT22;10591;52.532;13.348;2024-02-15T03:39:50;9.54;87.74
20862;DHT22;10591;52.532;13.348;2024-02-15T03:42:20;9.52;87.83
20862;DHT22;10591;52.532;13.348;2024-02-15T03:44:51;9.60;87.67
20862;DHT22;10591;52.532;13.348;2024-02-15T03:47:23;9.48;88.04
20862;DHT22;10591;52.532;13.348;2024-02-15T03:49:54;9.51;88.05
20862;DHT22;10591;52.532;13.348;2024-02-15T03:52:25;9.50;88.11
20862;DHT22;10591;52.532;13.348;2024-02-15T03:54:56;9.50;88.32
20862;DHT22;10591;52.532;13.348;2024-02-15T03:57:27;9.50;88.14
20862;DHT22;10591;52.532;13.348;2024-02-15T03:59:58;9.58;87.97
20862;DHT22;10591;52.532;13.348;2024-02-15T04:02:29;9.60;87.59
20862;DHT22;10591;52.532;13.348;2024-02-15T04:05:00;9.58;88.09
20862;DHT22;10591;52.532;13.348;2024-02-15T04:07:30;9.50;88.18
20862;DHT22;10591;52.532;13.348;2024-02-15T04:10:02;9.56;87.90
20862;DHT22;10591;52.532;13.348;2024-02-15T04:12:33;9.60;88.28
20862;DHT22;10591;52.532;13.348;2024-02-15T04:15:04;9.66;87.79
20862;DHT22;10591;52.532;13.348;2024-02-15T04:17:37;9.50;88.21
20862;DHT22;10591;52.532;13.348;2024-02-15T04:20:09;9.52;88.41
20862;DHT22;10591;52.532;13.348;2024-02-15T04:22:41;9.59;87.84
20862;DHT22;10591;52.532;13.348;2024-02-15T04:25:13;9.65;87.96
20862;DHT22;10591;52.532;13.348;2024-02-15T04:27:47;9.71;87.63
20862;DHT22;10591;52.532;13.348;2024-02-15T04:30:19;9.59;88.25
20862;DHT22;10591;52.532;13.348;2024-02-15T04:32:50;9.61;87.94
20862;DHT22;10591;52.532;13.348;2024-02-15T04:35:23;9.60;88.19
20862;DHT22;10591;52.532;13.348;2024-02-15T04:37:55;9.78;88.12
20862;DHT22;10591;52.532;13.348;2024-02-15T04:40:26;9.62;87.87
20862;DHT22;10591;52.532;13.348;2024-02-15T04:42:56;9.60;88.00
20862;DHT22;10591;52.532;13.348;2024-02-15T04:45:28;9.64;88.08
20862;DHT22;10591;52.532;13.348;2024-02-15T04:48:00;9.50;88.07
20862;DHT22;10591;52.532;13.348;2024-02-15T04:50:34;9.66;87.82
20862;DHT22;10591;52.532;13.348;2024-02-15T04:53:06;9.87;87.16
20862;DHT22;10591;52.532;13.348;2024-02-15T04:55:38;9.66;87.54
20862;DHT22;10591;52.532;13.348;2024-02-15T04:58:09;9.74;87.29
20862;DHT22;10591;52.532;13.348;2024-02-15T05:00:40;9.67;87.43
20862;DHT22;10591;52.532;13.348;2024-02-15T05:03:11;9.80;87.69
20862;DHT22;10591;52.532;13.348;2024-02-15T05:05:43;9.67;87.68
20862;DHT22;10591;52.532;13.348;2024-02-15T05:08:14;9.76;87.77
20862;DHT22;10591;52.532;13.348;2024-02-15T05:10:44;9.64;87.86
20862;DHT22;10591;52.532;13.348;2024-02-15T05:13:15;9.68;87.71
20862;DHT22;10591;52.532;13.348;2024-02-15T05:15:46;9.78;87.60
20862;DHT22;10591;52.532;13.348;2024-02-15T05:18:17;9.82;87.58
20862;DHT22;10591;52.532;13.348;2024-02-15T05:20:49;9.72;87.65
20862;DHT22;10591;52.532;13.348;2024-02-15T05:23:20;9.81;87.85
20862;DHT22;10591;52.532;13.348;2024-02-15T05:25:51;9.80;87.24
20862;DHT22;10591;52.532;13.348;2024-02-15T05:28:23;9.64;87.77
20862;DHT22;10591;52.532;13.348;2024-02-15T05:31:11;9.88;87.55
20862;DHT22;10591;52.532;13.348;2024-02-15T05:33:47;9.80;87.67
20862;DHT22;10591;52.532;13.348;2024-02-15T05:36:16;9.80;87.28
20862;DHT22;10591;52.532;13.348;2024-02-15T05:38:51;9.94;87.34
20862;DHT22;10591;52.532;13.348;2024-02-15T05:41:22;9.84;87.41
20862;DHT22;10591;52.532;13.348;2024-02-15T05:43:54;9.80;87.63
20862;DHT22;10591;52.532;13.348;2024-02-15T05:46:27;9.82;87.63
20862;DHT22;10591;52.532;13.348;2024-02-15T05:48:58;9.82;87.81
20862;DHT22;10591;52.532;13.348;2024-02-15T05:51:29;9.78;87.83
20862;DHT22;10591;52.532;13.348;2024-02-15T05:54:01;9.81;87.90
20862;DHT22;10591;52.532;13.348;2024-02-15T05:56:32;9.94;87.84
20862;DHT22;10591;52.532;13.348;2024-02-15T05:59:03;9.94;87.64
20862;DHT22;10591;52.532;13.348;2024-02-15T06:01:36;9.92;87.56
20862;DHT22;10591;52.532;13.348;2024-02-15T06:04:08;9.96;87.39
20862;DHT22;10591;52.532;13.348;2024-02-15T06:06:39;9.96;87.44
20862;DHT22;10591;52.532;13.348;2024-02-15T06:09:11;9.91;87.61
20862;DHT22;10591;52.532;13.348;2024-02-15T06:11:42;9.94;87.34
20862;DHT22;10591;52.532;13.348;2024-02-15T06:14:15;9.95;87.54
20862;DHT22;10591;52.532;13.348;2024-02-15T06:16:46;9.94;87.64
20862;DHT22;10591;52.532;13.348;2024-02-15T06:19:18;9.92;87.52
20862;DHT22;10591;52.532;13.348;2024-02-15T06:21:49;9.83;87.77
20862;DHT22;10591;52.532;13.348;2024-02-15T06:24:19;10.05;87.41
20862;DHT22;10591;52.532;13.348;2024-02-15T06:26:50;10.00;87.17
20862;DHT22;10591;52.532;13.348;2024-02-15T06:29:22;9.98;87.31
20862;DHT22;10591;52.532;13.348;2024-02-15T06:32:11;9.98;87.34
20862;DHT22;10591;52.532;13.348;2024-02-15T06:34:59;10.03;87.23
20862;DHT22;10591;52.532;13.348;2024-02-15T06:37:48;10.30;86.79
20862;DHT22;10591;52.532;13.348;2024-02-15T06:40:36;10.16;86.53
20862;DHT22;10591;52.532;13.348;2024-02-15T06:43:07;10.13;86.89
20862;DHT22;10591;52.532;13.348;2024-02-15T06:45:40;10.25;87.26
20862;DHT22;10591;52.532;13.348;2024-02-15T06:48:12;10.28;86.83
20862;DHT22;10591;52.532;13.348;2024-02-15T06:50:43;10.26;86.48
20862;DHT22;10591;52.532;13.348;2024-02-15T06:53:13;10.12;86.77
20862;DHT22;10591;52.532;13.348;2024-02-15T06:55:44;10.28;86.69
20862;DHT22;10591;52.532;13.348;2024-02-15T06:58:16;10.16;86.99
20862;DHT22;10591;52.532;13.348;2024-02-15T07:00:48;10.29;87.10
20862;DHT22;10591;52.532;13.348;2024-02-15T07:03:22;10.24;87.05
20862;DHT22;10591;52.532;13.348;2024-02-15T07:05:53;10.27;86.96
20862;DHT22;10591;52.532;13.348;2024-02-15T07:08:25;10.29;86.44
20862;DHT22;10591;52.532;13.348;2024-02-15T07:10:56;10.34;86.34
20862;DHT22;10591;52.532;13.348;2024-02-15T07:13:28;10.43;86.66
20862;DHT22;10591;52.532;13.348;2024-02-15T07:15:59;10.46;86.46
20862;DHT22;10591;52.532;13.348;2024-02-15T07:18:29;10.34;86.48
20862;DHT22;10591;52.532;13.348;2024-02-15T07:21:00;10.52;86.01
20862;DHT22;10591;52.532;13.348;2024-02-15T07:23:33;10.53;86.15
20862;DHT22;10591;52.532;13.348;2024-02-15T07:26:08;10.58;85.93
20862;DHT22;10591;52.532;13.348;2024-02-15T07:28:38;10.64;85.25
20862;DHT22;10591;52.532;13.348;2024-02-15T07:31:11;10.53;85.87
20862;DHT22;10591;52.532;13.348;2024-02-15T07:33:41;10.81;85.50
20862;DHT22;10591;52.532;13.348;2024-02-15T07:36:20;10.54;85.29
20862;DHT22;10591;52.532;13.348;2024-02-15T07:38:54;10.58;85.60
20862;DHT22;10591;52.532;13.348;2024-02-15T07:41:26;10.60;85.59
20862;DHT22;10591;52.532;13.348;2024-02-15T07:43:58;10.72;85.36
20862;DHT22;10591;52.532;13.348;2024-02-15T07:46:32;10.80;85.12
20862;DHT22;10591;52.532;13.348;2024-02-15T07:49:05;10.88;85.26
20862;DHT22;10591;52.532;13.348;2024-02-15T07:51:38;10.76;85.04
20862;DHT22;10591;52.532;13.348;2024-02-15T07:54:11;10.81;84.96
20862;DHT22;10591;52.532;13.348;2024-02-15T07:56:42;10.92;84.63
20862;DHT22;10591;52.532;13.348;2024-02-15T07:59:16;10.96;84.60
20862;DHT22;10591;52.532;13.348;2024-02-15T08:01:46;11.11;84.08
20862;DHT22;10591;52.532;13.348;2024-02-15T08:04:22;11.18;84.10
20862;DHT22;10591;52.532;13.348;2024-02-15T08:06:54;11.40;83.58
20862;DHT22;10591;52.532;13.348;2024-02-15T08:09:27;11.21;84.06
20862;DHT22;10591;52.532;13.348;2024-02-15T08:11:59;11.24;83.86
20862;DHT22;10591;52.532;13.348;2024-02-15T08:14:31;11.28;83.53
20862;DHT22;10591;52.532;13.348;2024-02-15T08:17:02;11.22;83.70
20862;DHT22;10591;52.532;13.348;2024-02-15T08:19:33;11.28;83.65
20862;DHT22;10591;52.532;13.348;2024-02-15T08:22:06;11.46;83.28
20862;DHT22;10591;52.532;13.348;2024-02-15T08:24:37;11.30;83.63
20862;DHT22;10591;52.532;13.348;2024-02-15T08:27:08;11.38;83.20
20862;DHT22;10591;52.532;13.348;2024-02-15T08:29:40;11.47;83.02
20862;DHT22;10591;52.532;13.348;2024-02-15T08:32:11;11.52;83.23
20862;DHT22;10591;52.532;13.348;2024-02-15T08:34:41;11.32;83.44
20862;DHT22;10591;52.532;13.348;2024-02-15T08:37:12;11.43;83.42
20862;DHT22;10591;52.532;13.348;2024-02-15T08:39:43;11.52;83.54
20862;DHT22;10591;52.532;13.348;2024-02-15T08:42:14;11.35;83.66
20862;DHT22;10591;52.532;13.348;2024-02-15T08:44:45;11.27;83.50
20862;DHT22;10591;52.532;13.348;2024-02-15T08:47:15;11.48;83.26
20862;DHT22;10591;52.532;13.348;2024-02-15T08:49:47;11.31;83.71
20862;DHT22;10591;52.532;13.348;2024-02-15T08:52:20;11.36;83.71
20862;DHT22;10591;52.532;13.348;2024-02-15T08:54:51;11.58;82.98
20862;DHT22;10591;52.532;13.348;2024-02-15T08:57:23;11.54;83.35
20862;DHT22;10591;52.532;13.348;2024-02-15T08:59:55;11.76;83.32
20862;DHT22;10591;52.532;13.348;2024-02-15T09:02:26;11.71;83.12
20862;DHT22;10591;52.532;13.348;2024-02-15T09:04:57;11.66;82.78
20862;DHT22;10591;52.532;13.348;2024-02-15T09:07:28;11.86;81.70
20862;DHT22;10591;52.532;13.348;2024-02-15T09:10:00;11.94;82.09
20862;DHT22;10591;52.532;13.348;2024-02-15T09:12:30;11.88;82.25
20862;DHT22;10591;52.532;13.348;2024-02-15T09:15:01;11.82;82.67
20862;DHT22;10591;52.532;13.348;2024-02-15T09:17:33;12.04;82.26
20862;DHT22;10591;52.532;13.348;2024-02-15T09:20:12;12.08;81.95
20862;DHT22;10591;52.532;13.348;2024-02-15T09:22:52;12.32;81.56
20862;DHT22;10591;52.532;13.348;2024-02-15T09:25:26;12.22;81.49
20862;DHT22;10591;52.532;13.348;2024-02-15T09:27:56;12.29;81.29
20862;DHT22;10591;52.532;13.348;2024-02-15T09:30:28;12.12;81.57
20862;DHT22;10591;52.532;13.348;2024-02-15T09:33:03;12.08;81.90
20862;DHT22;10591;52.532;13.348;2024-02-15T09:35:35;12.11;81.47
20862;DHT22;10591;52.532;13.348;2024-02-15T09:38:07;12.01;81.93
20862;DHT22;10591;52.532;13.348;2024-02-15T09:40:39;11.88;82.44
20862;DHT22;10591;52.532;13.348;2024-02-15T09:43:12;12.02;82.03
20862;DHT22;10591;52.532;13.348;2024-02-15T09:45:43;11.85;82.43
20862;DHT22;10591;52.532;13.348;2024-02-15T09:48:16;11.84;82.17
20862;DHT22;10591;52.532;13.348;2024-02-15T09:50:48;11.98;82.44
20862;DHT22;10591;52.532;13.348;2024-02-15T09:53:22;12.03;82.38
20862;DHT22;10591;52.532;13.348;2024-02-15T09:55:57;11.97;82.56
20862;DHT22;10591;52.532;13.348;2024-02-15T09:58:29;12.09;82.05
20862;DHT22;10591;52.532;13.348;2024-02-15T10:01:05;12.22;81.85
20862;DHT22;10591;52.532;13.348;2024-02-15T10:03:40;12.21;81.88
20862;DHT22;10591;52.532;13.348;2024-02-15T10:06:11;12.15;81.87
20862;DHT22;10591;52.532;13.348;2024-02-15T10:08:43;12.10;81.98
20862;DHT22;10591;52.532;13.348;2024-02-15T10:11:13;12.36;81.77
20862;DHT22;10591;52.532;13.348;2024-02-15T10:13:45;12.41;81.37
20862;DHT22;10591;52.532;13.348;2024-02-15T10:16:18;12.70;80.81
20862;DHT22;10591;52.532;13.348;2024-02-15T10:18:51;12.85;79.90
20862;DHT22;10591;52.532;13.348;2024-02-15T10:21:28;12.94;80.00
20862;DHT22;10591;52.532;13.348;2024-02-15T10:24:06;13.00;79.94
20862;DHT22;10591;52.532;13.348;2024-02-15T10:26:38;13.04;79.55
20862;DHT22;10591;52.532;13.348;2024-02-15T10:29:10;13.10;79.73
20862;DHT22;10591;52.532;13.348;2024-02-15T10:32:02;13.12;79.16
20862;DHT22;10591;52.532;13.348;2024-02-15T10:34:18;13.04;79.52
20862;DHT22;10591;52.532;13.348;2024-02-15T10:36:49;13.07;79.55
20862;DHT22;10591;52.532;13.348;2024-02-15T10:39:20;13.28;79.24
20862;DHT22;10591;52.532;13.348;2024-02-15T10:41:56;13.07;79.66
20862;DHT22;10591;52.532;13.348;2024-02-15T10:44:27;13.20;79.36
20862;DHT22;10591;52.532;13.348;2024-02-15T10:46:58;13.45;78.91
20862;DHT22;10591;52.532;13.348;2024-02-15T10:49:30;13.53;78.57
20862;DHT22;10591;52.532;13.348;2024-02-15T10:52:02;13.35;79.19
20862;DHT22;10591;52.532;13.348;2024-02-15T10:54:52;13.36;79.51
20862;DHT22;10591;52.532;13.348;2024-02-15T10:57:25;13.38;79.87
20862;DHT22;10591;52.532;13.348;2024-02-15T10:59:58;13.42;79.28
20862;DHT22;10591;52.532;13.348;2024-02-15T11:02:42;13.55;78.75
20862;DHT22;10591;52.532;13.348;2024-02-15T11:05:09;13.72;78.51
20862;DHT22;10591;52.532;13.348;2024-02-15T11:07:42;14.10;77.75
20862;DHT22;10591;52.532;13.348;2024-02-15T11:10:13;13.91;77.56
20862;DHT22;10591;52.532;13.348;2024-02-15T11:12:46;13.98;77.67
20862;DHT22;10591;52.532;13.348;2024-02-15T11:15:47;13.84;77.82
20862;DHT22;10591;52.532;13.348;2024-02-15T11:18:44;13.64;78.41
20862;DHT22;10591;52.532;13.348;2024-02-15T11:21:17;14.01;77.52
20862;DHT22;10591;52.532;13.348;2024-02-15T11:23:48;13.88;77.83
20862;DHT22;10591;52.532;13.348;2024-02-15T11:26:43;13.74;78.24
20862;DHT22;10591;52.532;13.348;2024-02-15T11:29:49;13.77;77.84
20862;DHT22;10591;52.532;13.348;2024-02-15T11:35:25;13.78;78.09
20862;DHT22;10591;52.532;13.348;2024-02-15T11:37:58;13.66;78.60
20862;DHT22;10591;52.532;13.348;2024-02-15T11:46:07;13.40;79.07
20862;DHT22;10591;52.532;13.348;2024-02-15T11:48:40;13.40;79.57
20862;DHT22;10591;52.532;13.348;2024-02-15T11:51:35;13.24;80.07
20862;DHT22;10591;52.532;13.348;2024-02-15T11:53:43;13.44;79.63
20862;DHT22;10591;52.532;13.348;2024-02-15T11:56:14;13.51;79.60
20862;DHT22;10591;52.532;13.348;2024-02-15T11:59:00;13.39;79.77
20862;DHT22;10591;52.532;13.348;2024-02-15T12:01:21;13.46;79.31
20862;DHT22;10591;52.532;13.348;2024-02-15T12:04:10;13.25;80.30
20862;DHT22;10591;52.532;13.348;2024-02-15T12:07:03;13.35;79.84
20862;DHT22;10591;52.532;13.348;2024-02-15T12:10:00;13.20;80.53
20862;DHT22;10591;52.532;13.348;2024-02-15T12:12:55;13.30;80.08
20862;DHT22;10591;52.532;13.348;2024-02-15T12:15:55;13.20;80.28
20862;DHT22;10591;52.532;13.348;2024-02-15T12:18:35;13.24;80.14
20862;DHT22;10591;52.532;13.348;2024-02-15T12:21:23;13.33;80.03
20862;DHT22;10591;52.532;13.348;2024-02-15T12:23:53;13.32;80.01
20862;DHT22;10591;52.532;13.348;2024-02-15T12:26:25;13.49;79.59
20862;DHT22;10591;52.532;13.348;2024-02-15T12:28:57;13.54;79.25
20862;DHT22;10591;52.532;13.348;2024-02-15T12:31:28;13.73;79.02
20862;DHT22;10591;52.532;13.348;2024-02-15T12:34:03;13.84;78.41
20862;DHT22;10591;52.532;13.348;2024-02-15T12:36:37;13.78;78.67
20862;DHT22;10591;52.532;13.348;2024-02-15T12:39:08;13.90;78.03
20862;DHT22;10591;52.532;13.348;2024-02-15T12:41:50;14.07;77.43
20862;DHT22;10591;52.532;13.348;2024-02-15T12:44:21;14.25;76.95
20862;DHT22;10591;52.532;13.348;2024-02-15T12:46:57;14.32;76.92
20862;DHT22;10591;52.532;13.348;2024-02-15T12:49:31;14.51;76.00
20862;DHT22;10591;52.532;13.348;2024-02-15T12:52:41;14.06;76.63
20862;DHT22;10591;52.532;13.348;2024-02-15T12:55:09;14.25;76.73
20862;DHT22;10591;52.532;13.348;2024-02-15T12:57:49;14.38;76.15
20862;DHT22;10591;52.532;13.348;2024-02-15T13:00:23;14.58;75.74
20862;DHT22;10591;52.532;13.348;2024-02-15T13:02:59;14.48;75.27
20862;DHT22;10591;52.532;13.348;2024-02-15T13:05:33;14.54;75.67
20862;DHT22;10591;52.532;13.348;2024-02-15T13:08:05;14.62;75.85
20862;DHT22;10591;52.532;13.348;2024-02-15T13:10:38;14.61;75.11
20862;DHT22;10591;52.532;13.348;2024-02-15T13:13:10;14.58;75.62
20862;DHT22;10591;52.532;13.348;2024-02-15T13:15:41;14.52;75.62
20862;DHT22;10591;52.532;13.348;2024-02-15T13:18:13;14.48;75.66
20862;DHT22;10591;52.532;13.348;2024-02-15T13:20:45;14.48;75.77
20862;DHT22;10591;52.532;13.348;2024-02-15T13:23:17;14.50;75.59
20862;DHT22;10591;52.532;13.348;2024-02-15T13:25:56;14.38;75.69
20862;DHT22;10591;52.532;13.348;2024-02-15T13:28:27;14.37;75.50
20862;DHT22;10591;52.532;13.348;2024-02-15T13:30:57;14.06;76.85
20862;DHT22;10591;52.532;13.348;2024-02-15T13:33:28;14.18;76.15
20862;DHT22;10591;52.532;13.348;2024-02-15T13:36:00;14.26;76.03
20862;DHT22;10591;52.532;13.348;2024-02-15T13:38:31;14.28;76.19
20862;DHT22;10591;52.532;13.348;2024-02-15T13:41:03;14.41;76.40
20862;DHT22;10591;52.532;13.348;2024-02-15T13:43:33;14.52;75.63
20862;DHT22;10591;52.532;13.348;2024-02-15T13:46:04;14.42;76.27
20862;DHT22;10591;52.532;13.348;2024-02-15T13:48:36;14.66;75.64
20862;DHT22;10591;52.532;13.348;2024-02-15T13:51:08;14.72;75.13
20862;DHT22;10591;52.532;13.348;2024-02-15T13:53:39;14.36;76.50
20862;DHT22;10591;52.532;13.348;2024-02-15T13:56:09;14.44;75.84
20862;DHT22;10591;52.532;13.348;2024-02-15T13:58:40;14.24;76.39
20862;DHT22;10591;52.532;13.348;2024-02-15T14:01:11;14.24;76.47
20862;DHT22;10591;52.532;13.348;2024-02-15T14:03:43;14.04;76.92
20862;DHT22;10591;52.532;13.348;2024-02-15T14:06:18;14.40;75.77
20862;DHT22;10591;52.532;13.348;2024-02-15T14:08:48;14.34;76.43
20862;DHT22;10591;52.532;13.348;2024-02-15T14:11:20;14.37;76.46
20862;DHT22;10591;52.532;13.348;2024-02-15T14:13:52;14.44;75.78
20862;DHT22;10591;52.532;13.348;2024-02-15T14:16:25;14.24;76.34
20862;DHT22;10591;52.532;13.348;2024-02-15T14:18:57;13.91;77.20
20862;DHT22;10591;52.532;13.348;2024-02-15T14:21:30;14.18;76.80
20862;DHT22;10591;52.532;13.348;2024-02-15T14:24:03;13.94;77.37
20862;DHT22;10591;52.532;13.348;2024-02-15T14:26:34;14.09;77.05
20862;DHT22;10591;52.532;13.348;2024-02-15T14:29:05;13.89;77.74
20862;DHT22;10591;52.532;13.348;2024-02-15T14:31:36;14.06;77.51
20862;DHT22;10591;52.532;13.348;2024-02-15T14:34:24;13.87;77.49
20862;DHT22;10591;52.532;13.348;2024-02-15T14:36:56;13.82;77.92
20862;DHT22;10591;52.532;13.348;2024-02-15T14:39:29;13.86;78.03
20862;DHT22;10591;52.532;13.348;2024-02-15T14:42:02;13.66;78.32
20862;DHT22;10591;52.532;13.348;2024-02-15T14:44:34;13.78;78.16
20862;DHT22;10591;52.532;13.348;2024-02-15T14:47:06;13.70;78.28
20862;DHT22;10591;52.532;13.348;2024-02-15T14:49:38;13.61;78.77
20862;DHT22;10591;52.532;13.348;2024-02-15T14:52:09;13.68;78.42
20862;DHT22;10591;52.532;13.348;2024-02-15T14:54:40;13.75;78.24
20862;DHT22;10591;52.532;13.348;2024-02-15T14:57:11;13.81;78.14
20862;DHT22;10591;52.532;13.348;2024-02-15T14:59:41;13.51;78.97
20862;DHT22;10591;52.532;13.348;2024-02-15T15:02:15;13.59;78.68
20862;DHT22;10591;52.532;13.348;2024-02-15T15:04:46;13.51;78.94
20862;DHT22;10591;52.532;13.348;2024-02-15T15:07:36;13.52;78.99
20862;DHT22;10591;52.532;13.348;2024-02-15T15:10:26;13.44;79.53
20862;DHT22;10591;52.532;13.348;2024-02-15T15:13:14;13.54;79.62
20862;DHT22;10591;52.532;13.348;2024-02-15T15:15:45;13.30;79.90
20862;DHT22;10591;52.532;13.348;2024-02-15T15:18:17;13.40;79.85
20862;DHT22;10591;52.532;13.348;2024-02-15T15:20:49;13.54;79.50
20862;DHT22;10591;52.532;13.348;2024-02-15T15:23:20;13.30;79.83
20862;DHT22;10591;52.532;13.348;2024-02-15T15:25:53;13.25;80.40
20862;DHT22;10591;52.532;13.348;2024-02-15T15:28:25;13.16;80.71
20862;DHT22;10591;52.532;13.348;2024-02-15T15:30:58;13.22;80.53
20862;DHT22;10591;52.532;13.348;2024-02-15T15:33:29;13.20;80.78
20862;DHT22;10591;52.532;13.348;2024-02-15T15:36:03;13.19;80.72
20862;DHT22;10591;52.532;13.348;2024-02-15T15:38:34;13.08;80.99
20862;DHT22;10591;52.532;13.348;2024-02-15T15:41:07;13.05;81.29
20862;DHT22;10591;52.532;13.348;2024-02-15T15:43:39;13.09;80.95
20862;DHT22;10591;52.532;13.348;2024-02-15T15:46:14;13.07;81.17
20862;DHT22;10591;52.532;13.348;2024-02-15T15:48:47;13.12;81.03
20862;DHT22;10591;52.532;13.348;2024-02-15T15:51:19;13.08;81.15
20862;DHT22;10591;52.532;13.348;2024-02-15T15:53:53;12.97;81.66
20862;DHT22;10591;52.532;13.348;2024-02-15T15:56:26;12.88;82.01
20862;DHT22;10591;52.532;13.348;2024-02-15T15:58:56;12.92;81.89
20862;DHT22;10591;52.532;13.348;2024-02-15T16:01:27;12.90;82.09
20862;DHT22;10591;52.532;13.348;2024-02-15T16:04:00;12.86;82.10
20862;DHT22;10591;52.532;13.348;2024-02-15T16:06:32;12.88;82.13
20862;DHT22;10591;52.532;13.348;2024-02-15T16:09:04;12.81;82.51